Time;durP1;ratioP1;P1;durP2;ratioP2;P2;SDS_P1;SDS_P2;PMS_P1;PMS_P2;Temp;Humidity;BMP_temperature;BMP_pressure;BME280_temperature;BME280_humidity;BME280_pressure;Samples;Min_cycle;Max_cycle;Signal;HPM_P1;HPM_P2
2021/09/20 00:01:04;;;;;;;11.10;5.40;;;7.30;99.90;;;;;;4934837;29;20208;-90
2021/09/20 00:03:30;;;;;;;8.60;5.73;;;7.30;99.90;;;;;;4935806;29;20235;-90
2021/09/20 00:05:55;;;;;;;7.03;5.40;;;7.30;99.90;;;;;;4919096;29;20183;-90
2021/09/20 00:08:21;;;;;;;7.17;5.07;;;7.30;99.90;;;;;;4918726;29;20274;-91
2021/09/20 00:10:47;;;;;;;8.47;5.67;;;7.20;99.90;;;;;;4934684;29;20194;-91
2021/09/20 00:13:13;;;;;;;7.00;4.83;;;7.20;99.90;;;;;;4936086;29;20192;-91
2021/09/20 00:15:38;;;;;;;7.43;4.73;;;7.20;99.90;;;;;;4936004;29;20614;-90
2021/09/20 00:18:04;;;;;;;6.90;5.00;;;7.20;99.90;;;;;;4935597;29;20585;-90
2021/09/20 00:20:29;;;;;;;6.83;4.70;;;7.20;99.90;;;;;;4936759;29;20215;-90
2021/09/20 00:22:55;;;;;;;10.47;5.03;;;7.20;99.90;;;;;;4936526;29;20231;-92
2021/09/20 00:25:21;;;;;;;9.57;5.73;;;7.20;99.90;;;;;;4935511;29;20188;-90
2021/09/20 00:27:47;;;;;;;7.57;5.07;;;7.20;99.90;;;;;;4936091;29;20621;-91
2021/09/20 00:30:13;;;;;;;7.60;4.73;;;7.20;99.90;;;;;;4935817;29;20263;-90
2021/09/20 00:32:39;;;;;;;7.13;5.30;;;7.20;99.90;;;;;;4935509;29;20187;-93
2021/09/20 00:35:06;;;;;;;6.13;4.63;;;7.20;99.90;;;;;;4936839;29;20187;-92
2021/09/20 00:37:32;;;;;;;5.83;4.90;;;7.20;99.90;;;;;;4934977;29;20279;-93
2021/09/20 00:39:58;;;;;;;6.03;4.53;;;7.10;99.90;;;;;;4936471;29;20191;-92
2021/09/20 00:42:24;;;;;;;7.27;4.90;;;;;;;;;;4935769;29;20208;-92
2021/09/20 00:44:50;;;;;;;6.43;5.13;;;7.10;99.90;;;;;;4919504;29;20188;-94
2021/09/20 00:47:16;;;;;;;7.53;4.80;;;7.20;99.90;;;;;;4919362;29;20232;-93
2021/09/20 00:49:42;;;;;;;5.50;4.30;;;7.10;99.90;;;;;;4934814;29;20199;-93
2021/09/20 00:52:09;;;;;;;6.93;4.37;;;7.10;99.90;;;;;;4936211;29;20191;-93
2021/09/20 00:54:35;;;;;;;6.20;4.50;;;7.10;99.90;;;;;;4935829;29;20179;-93
2021/09/20 00:57:02;;;;;;;5.60;4.40;;;7.10;99.90;;;;;;4917864;29;20188;-90
2021/09/20 00:59:28;;;;;;;8.70;4.43;;;7.20;99.90;;;;;;4917892;29;20180;-93
2021/09/20 01:01:54;;;;;;;8.50;4.97;;;7.10;99.90;;;;;;4936588;29;20222;-93
2021/09/20 01:04:20;;;;;;;7.53;4.23;;;7.10;99.90;;;;;;4938429;29;20665;-92
2021/09/20 01:06:46;;;;;;;6.93;5.10;;;7.10;99.90;;;;;;4939134;29;20187;-93
2021/09/20 01:09:12;;;;;;;7.17;4.80;;;7.10;99.90;;;;;;4938254;29;20176;-92
2021/09/20 01:11:38;;;;;;;6.97;4.60;;;7.10;99.90;;;;;;4937842;29;20219;-92
2021/09/20 01:14:04;;;;;;;6.13;4.43;;;7.10;99.90;;;;;;4939419;29;20188;-91
2021/09/20 01:16:29;;;;;;;5.17;4.13;;;7.10;99.90;;;;;;4938078;29;20305;-93
2021/09/20 01:18:55;;;;;;;6.70;5.00;;;7.10;99.90;;;;;;4938148;29;20188;-93
2021/09/20 01:21:21;;;;;;;11.03;4.50;;;7.20;99.90;;;;;;4938863;29;20270;-91
2021/09/20 01:23:46;;;;;;;5.47;4.30;;;7.20;99.90;;;;;;4938246;29;20176;-91
2021/09/20 01:26:13;;;;;;;5.83;4.37;;;7.10;99.90;;;;;;4938831;29;20530;-92
2021/09/20 01:28:40;;;;;;;7.37;4.50;;;7.10;99.90;;;;;;4937432;29;20233;-93
2021/09/20 01:31:06;;;;;;;6.70;5.00;;;7.10;99.90;;;;;;4922051;29;20207;-92
2021/09/20 01:33:31;;;;;;;8.17;4.70;;;7.00;99.90;;;;;;4937085;29;20637;-90
2021/09/20 01:35:57;;;;;;;6.03;4.43;;;7.10;99.90;;;;;;4937927;29;20191;-92
2021/09/20 01:38:23;;;;;;;6.13;4.00;;;7.10;99.90;;;;;;4938776;29;20184;-92
2021/09/20 01:40:49;;;;;;;5.90;4.53;;;7.10;99.90;;;;;;4937120;29;20728;-92
2021/09/20 01:43:16;;;;;;;8.67;4.47;;;7.10;99.90;;;;;;4938490;29;20243;-91
2021/09/20 01:45:42;;;;;;;6.20;4.13;;;7.10;99.90;;;;;;4938127;29;20191;-91
2021/09/20 01:48:08;;;;;;;7.63;4.50;;;7.10;99.90;;;;;;4936000;29;20227;-92
2021/09/20 01:50:34;;;;;;;9.93;4.57;;;7.10;99.90;;;;;;4937918;29;20621;-91
2021/09/20 01:53:00;;;;;;;7.73;4.07;;;7.10;99.90;;;;;;4937270;29;20542;-91
2021/09/20 01:55:26;;;;;;;5.87;4.20;;;7.10;99.90;;;;;;4937254;29;20637;-91
2021/09/20 01:57:51;;;;;;;5.80;4.30;;;7.10;99.90;;;;;;4936604;29;20207;-91
2021/09/20 02:00:17;;;;;;;6.57;4.80;;;7.00;99.90;;;;;;4938362;29;20637;-92
2021/09/20 02:02:44;;;;;;;7.20;4.47;;;7.10;99.90;;;;;;4936892;29;20235;-91
2021/09/20 02:05:11;;;;;;;7.03;4.27;;;7.00;99.90;;;;;;4938204;29;20235;-93
2021/09/20 02:07:37;;;;;;;5.40;4.40;;;7.00;99.90;;;;;;4936801;29;20262;-92
2021/09/20 02:10:05;;;;;;;5.37;4.13;;;7.10;99.90;;;;;;4937911;29;20188;-91
2021/09/20 02:12:31;;;;;;;6.20;4.20;;;7.00;99.90;;;;;;4937230;29;20188;-92
2021/09/20 02:14:57;;;;;;;6.30;4.27;;;;;;;;;;4936579;29;20532;-91
2021/09/20 02:17:23;;;;;;;8.17;5.00;;;7.00;99.90;;;;;;4936584;29;20251;-91
2021/09/20 02:19:49;;;;;;;6.77;4.40;;;7.00;99.90;;;;;;4936254;29;20183;-91
2021/09/20 02:22:14;;;;;;;5.13;4.07;;;7.00;99.90;;;;;;4937258;29;20226;-92
2021/09/20 02:24:40;;;;;;;5.73;4.10;;;7.00;99.90;;;;;;4920995;29;20188;-91
2021/09/20 02:27:06;;;;;;;8.20;5.03;;;7.00;99.90;;;;;;4938818;29;20191;-91
2021/09/20 02:29:33;;;;;;;9.03;5.00;;;7.00;99.90;;;;;;4937579;29;20180;-91
2021/09/20 02:31:59;;;;;;;7.00;4.97;;;7.00;99.90;;;;;;4936991;29;20642;-91
2021/09/20 02:34:25;;;;;;;6.60;5.00;;;7.00;99.90;;;;;;4937832;29;20186;-92
2021/09/20 02:36:50;;;;;;;7.77;4.93;;;7.00;99.90;;;;;;4938513;29;20207;-91
2021/09/20 02:39:16;;;;;;;6.07;4.47;;;7.00;99.90;;;;;;4936053;29;20214;-90
2021/09/20 02:41:42;;;;;;;6.17;4.80;;;7.00;99.90;;;;;;4935744;29;20247;-92
2021/09/20 02:44:08;;;;;;;6.37;4.17;;;7.00;99.90;;;;;;4937953;29;20190;-93
2021/09/20 02:46:34;;;;;;;6.67;4.50;;;7.00;99.90;;;;;;4936238;29;20279;-92
2021/09/20 02:49:00;;;;;;;6.90;4.53;;;7.00;99.90;;;;;;4935748;29;20184;-91
2021/09/20 02:51:26;;;;;;;6.23;4.33;;;7.00;99.90;;;;;;4935263;29;20186;-90
2021/09/20 02:53:51;;;;;;;7.17;4.87;;;7.00;99.90;;;;;;4935716;29;20192;-91
2021/09/20 02:56:17;;;;;;;5.33;4.03;;;7.00;99.90;;;;;;4935834;29;20191;-90
2021/09/20 02:58:43;;;;;;;5.83;4.57;;;7.00;99.90;;;;;;4936145;29;20188;-93
2021/09/20 03:01:08;;;;;;;4.77;4.10;;;7.00;99.90;;;;;;4920358;29;20717;-91
2021/09/20 03:03:34;;;;;;;6.23;4.80;;;7.00;99.90;;;;;;4936031;29;20180;-91
2021/09/20 03:06:00;;;;;;;5.63;4.53;;;7.00;99.90;;;;;;4936891;29;20199;-91
2021/09/20 03:08:26;;;;;;;8.43;5.00;;;7.00;99.90;;;;;;4920728;29;20207;-91
2021/09/20 03:10:52;;;;;;;6.00;4.70;;;;;;;;;;4936137;29;20847;-91
2021/09/20 03:13:17;;;;;;;7.47;4.67;;;7.00;99.90;;;;;;4935800;29;20180;-91
2021/09/20 03:15:43;;;;;;;6.63;4.63;;;7.10;99.90;;;;;;4919343;29;20668;-92
2021/09/20 03:18:08;;;;;;;6.03;5.07;;;6.90;99.90;;;;;;4936078;29;20188;-90
2021/09/20 03:20:34;;;;;;;6.80;5.00;;;6.90;99.90;;;;;;4936698;29;20191;-90
2021/09/20 03:23:00;;;;;;;6.43;5.07;;;7.00;99.90;;;;;;4919567;29;20219;-91
2021/09/20 03:25:26;;;;;;;5.47;4.40;;;7.00;99.90;;;;;;4938443;29;20625;-90
2021/09/20 03:27:51;;;;;;;5.33;4.27;;;7.00;99.90;;;;;;4937717;29;20271;-89
2021/09/20 03:30:18;;;;;;;8.33;4.70;;;7.00;99.90;;;;;;4936783;29;20644;-90
2021/09/20 03:32:45;;;;;;;6.40;5.03;;;7.00;99.90;;;;;;4935430;29;20215;-89
2021/09/20 03:35:12;;;;;;;6.87;5.10;;;7.00;99.90;;;;;;4935755;29;20188;-92
2021/09/20 03:37:38;;;;;;;7.73;5.53;;;6.90;99.90;;;;;;4936351;29;20184;-91
2021/09/20 03:40:04;;;;;;;7.17;5.40;;;6.90;99.90;;;;;;4944589;29;20191;-91
2021/09/20 03:42:30;;;;;;;7.93;5.00;;;6.90;99.90;;;;;;4935932;29;20210;-91
2021/09/20 03:44:55;;;;;;;6.23;4.80;;;6.80;99.90;;;;;;4947323;29;20184;-90
2021/09/20 03:47:21;;;;;;;8.43;5.77;;;6.80;99.90;;;;;;4946062;29;20235;-91
2021/09/20 03:49:47;;;;;;;7.17;5.17;;;6.80;99.90;;;;;;4959450;28;20210;-90
2021/09/20 03:52:12;;;;;;;10.73;5.50;;;6.80;99.90;;;;;;4945986;29;20191;-93
2021/09/20 03:54:38;;;;;;;8.10;5.17;;;6.90;99.90;;;;;;4944145;29;20633;-91
2021/09/20 03:57:04;;;;;;;6.83;5.20;;;6.90;99.90;;;;;;4943831;29;20191;-92
2021/09/20 03:59:30;;;;;;;12.23;5.30;;;7.00;99.90;;;;;;4947321;29;20180;-90
2021/09/20 04:01:56;;;;;;;8.43;5.47;;;6.90;99.90;;;;;;4943496;29;20214;-92
2021/09/20 04:04:22;;;;;;;6.60;4.90;;;6.90;99.90;;;;;;4944904;29;20175;-92
2021/09/20 04:06:48;;;;;;;7.30;5.20;;;;;;;;;;4946368;29;20191;-89
2021/09/20 04:09:14;;;;;;;7.30;5.10;;;;;;;;;;4944689;29;20180;-92
2021/09/20 04:11:40;;;;;;;8.77;5.77;;;6.90;99.90;;;;;;4947276;29;20198;-92
2021/09/20 04:14:09;;;;;;;7.10;4.87;;;6.60;99.90;;;;;;4949567;29;20556;-91
2021/09/20 04:16:35;;;;;;;6.67;4.70;;;6.90;99.90;;;;;;4950128;28;20199;-93
2021/09/20 04:19:01;;;;;;;6.73;4.70;;;6.90;99.90;;;;;;4952114;29;20678;-92
2021/09/20 04:21:26;;;;;;;7.10;4.60;;;6.90;99.90;;;;;;4944901;29;20223;-91
2021/09/20 04:23:53;;;;;;;7.10;4.10;;;;;;;;;;4945369;29;20202;-92
2021/09/20 04:26:18;;;;;;;5.47;3.57;;;6.90;99.90;;;;;;4951785;29;20195;-91
2021/09/20 04:28:44;;;;;;;5.37;3.70;;;;;;;;;;4952225;29;20198;-92
2021/09/20 04:31:10;;;;;;;5.63;3.53;;;6.80;99.90;;;;;;4951788;29;20230;-91
2021/09/20 04:33:36;;;;;;;5.97;3.90;;;6.80;99.90;;;;;;4952174;29;20266;-91
2021/09/20 04:36:02;;;;;;;5.67;3.83;;;;;;;;;;4954575;28;20649;-92
2021/09/20 04:38:27;;;;;;;5.10;3.20;;;7.00;99.90;;;;;;4954998;29;20198;-92
2021/09/20 04:40:53;;;;;;;4.73;3.80;;;7.00;99.90;;;;;;4954787;29;20653;-91
2021/09/20 04:43:19;;;;;;;5.17;3.40;;;7.00;99.90;;;;;;4955353;29;20187;-92
2021/09/20 04:45:45;;;;;;;4.77;3.23;;;7.10;99.90;;;;;;4955547;29;20195;-90
2021/09/20 04:48:11;;;;;;;4.07;3.13;;;7.00;99.90;;;;;;4956304;29;20708;-93
2021/09/20 04:50:46;;;;;;;3.37;2.77;;;6.90;99.90;;;;;;4955868;29;20201;-90
2021/09/20 04:53:14;;;;;;;3.50;2.60;;;7.00;99.90;;;;;;4955922;29;20215;-93
2021/09/20 04:55:40;;;;;;;3.27;2.57;;;7.00;99.90;;;;;;4956101;29;20246;-91
2021/09/20 04:58:11;;;;;;;3.97;2.77;;;6.90;99.90;;;;;;4967656;28;20187;-91
2021/09/20 05:00:39;;;;;;;8.93;2.60;;;6.90;99.90;;;;;;4955445;29;20227;-89
2021/09/20 05:03:05;;;;;;;3.20;2.57;;;6.80;99.90;;;;;;4953664;29;20830;-92
2021/09/20 05:05:31;;;;;;;3.10;2.77;;;6.90;99.90;;;;;;4952102;29;20183;-88
2021/09/20 05:07:57;;;;;;;4.30;2.83;;;;;;;;;;4936875;29;20203;-88
2021/09/20 05:10:23;;;;;;;3.77;3.20;;;6.80;99.90;;;;;;4939178;29;20195;-91
2021/09/20 05:12:49;;;;;;;6.00;3.33;;;6.80;99.90;;;;;;4955653;29;20187;-92
2021/09/20 05:15:16;;;;;;;5.00;4.00;;;6.80;99.90;;;;;;4956358;29;20277;-92
2021/09/20 05:17:43;;;;;;;5.13;3.30;;;6.80;99.90;;;;;;4940181;29;20211;-92
2021/09/20 05:20:09;;;;;;;5.83;3.07;;;6.80;99.90;;;;;;4957174;29;20210;-91
2021/09/20 05:22:35;;;;;;;4.50;3.93;;;6.80;99.90;;;;;;4957111;29;20211;-93
2021/09/20 05:25:01;;;;;;;4.90;3.43;;;6.70;99.90;;;;;;4940349;29;20183;-90
2021/09/20 05:27:28;;;;;;;5.20;3.50;;;;;;;;;;4956341;29;20206;-91
2021/09/20 05:29:55;;;;;;;6.13;3.97;;;6.80;99.90;;;;;;4957626;29;20270;-89
2021/09/20 05:32:21;;;;;;;5.97;3.23;;;6.80;99.90;;;;;;4956028;29;20291;-91
2021/09/20 05:34:46;;;;;;;4.63;3.90;;;6.80;99.90;;;;;;4955937;29;20266;-90
2021/09/20 05:37:12;;;;;;;7.27;3.30;;;;;;;;;;4956664;29;20188;-88
2021/09/20 05:39:38;;;;;;;4.93;3.63;;;7.10;99.90;;;;;;4957353;29;20254;-91
2021/09/20 05:42:04;;;;;;;5.47;4.07;;;7.10;99.90;;;;;;4939315;29;20692;-91
2021/09/20 05:44:29;;;;;;;5.67;3.90;;;7.00;99.90;;;;;;4957679;29;20180;-90
2021/09/20 05:46:56;;;;;;;4.97;4.00;;;;;;;;;;4957725;28;20238;-92
2021/09/20 05:49:22;;;;;;;5.80;3.87;;;;;;;;;;4937192;29;20191;-92
2021/09/20 05:51:48;;;;;;;5.60;4.43;;;;;;;;;;4939339;29;20274;-92
2021/09/20 05:54:14;;;;;;;5.10;4.40;;;;;;;;;;4938108;29;20187;-92
2021/09/20 05:56:40;;;;;;;6.47;4.13;;;;;;;;;;4924579;29;20187;-92
2021/09/20 05:59:05;;;;;;;6.40;3.90;;;7.10;99.90;;;;;;4943386;29;20263;-90
2021/09/20 06:01:31;;;;;;;9.43;4.27;;;7.10;99.90;;;;;;4909790;29;20212;-91
2021/09/20 06:03:57;;;;;;;4.50;3.43;;;7.00;99.90;;;;;;4937738;29;20179;-91
2021/09/20 06:06:23;;;;;;;5.63;4.43;;;;;;;;;;4946948;29;20707;-90
2021/09/20 06:08:49;;;;;;;5.87;3.80;;;;;;;;;;4928091;29;20183;-92
2021/09/20 06:11:15;;;;;;;7.00;4.00;;;7.00;99.90;;;;;;4945238;29;20664;-90
2021/09/20 06:13:41;;;;;;;6.53;4.20;;;;;;;;;;4944970;29;20203;-92
2021/09/20 06:16:08;;;;;;;4.43;3.70;;;7.00;99.90;;;;;;4937498;29;20192;-91
2021/09/20 06:18:34;;;;;;;5.20;3.77;;;7.00;99.90;;;;;;4937960;29;20215;-91
2021/09/20 06:21:01;;;;;;;5.83;3.50;;;;;;;;;;4940059;29;20242;-91
2021/09/20 06:23:26;;;;;;;5.47;3.60;;;7.10;99.90;;;;;;4950470;29;20198;-91
2021/09/20 06:25:52;;;;;;;8.20;3.50;;;7.10;99.90;;;;;;4947748;29;20183;-93
2021/09/20 06:28:18;;;;;;;6.17;3.33;;;;;;;;;;4948292;29;20183;-92
2021/09/20 06:30:44;;;;;;;6.80;3.17;;;7.10;99.90;;;;;;4945925;29;20202;-92
2021/09/20 06:33:10;;;;;;;4.20;3.23;;;7.20;99.90;;;;;;4954540;29;20562;-92
2021/09/20 06:35:35;;;;;;;4.03;2.80;;;7.20;99.90;;;;;;4938911;29;20199;-91
2021/09/20 06:38:01;;;;;;;4.70;2.87;;;7.10;99.90;;;;;;4934380;29;20269;-92
2021/09/20 06:40:28;;;;;;;3.17;2.67;;;6.90;99.90;;;;;;4948647;29;20180;-92
2021/09/20 06:42:54;;;;;;;3.90;2.77;;;;;;;;;;4945902;29;20215;-93
2021/09/20 06:45:20;;;;;;;3.83;2.73;;;7.00;99.90;;;;;;4944892;29;20195;-90
2021/09/20 06:47:46;;;;;;;4.20;3.00;;;;;;;;;;4945987;29;20263;-90
2021/09/20 06:50:12;;;;;;;3.53;2.50;;;;;;;;;;4946088;29;20192;-91
2021/09/20 06:52:38;;;;;;;4.93;3.40;;;6.90;99.90;;;;;;4944684;29;20263;-91
2021/09/20 06:55:05;;;;;;;4.53;3.37;;;6.90;99.90;;;;;;4944639;29;20278;-90
2021/09/20 06:57:31;;;;;;;4.50;2.60;;;;;;;;;;4937393;29;20214;-94
2021/09/20 06:59:57;;;;;;;4.13;2.80;;;;;;;;;;4947775;29;20183;-92
2021/09/20 07:02:23;;;;;;;11.57;3.20;;;7.00;99.90;;;;;;4946418;29;20206;-92
2021/09/20 07:04:49;;;;;;;3.50;2.20;;;7.10;99.90;;;;;;4927773;29;20250;-91
2021/09/20 07:07:17;;;;;;;5.27;2.70;;;7.00;99.90;;;;;;4939472;29;20262;-91
2021/09/20 07:09:43;;;;;;;5.03;2.70;;;;;;;;;;4955007;29;20175;-94
2021/09/20 07:12:09;;;;;;;4.73;2.23;;;7.30;99.90;;;;;;4931284;29;20187;-92
2021/09/20 07:14:35;;;;;;;3.90;2.77;;;7.30;99.90;;;;;;4954660;28;20195;-92
2021/09/20 07:17:00;;;;;;;6.17;3.33;;;7.30;99.90;;;;;;4948938;29;20218;-92
2021/09/20 07:19:26;;;;;;;8.63;2.70;;;7.20;99.90;;;;;;4948142;29;20711;-93
2021/09/20 07:21:52;;;;;;;8.80;2.90;;;;;;;;;;4941007;29;20573;-93
2021/09/20 07:24:18;;;;;;;5.17;2.30;;;;;;;;;;4951923;29;20197;-94
2021/09/20 07:26:44;;;;;;;3.33;2.40;;;;;;;;;;4948419;29;20191;-91
2021/09/20 07:29:10;;;;;;;3.20;2.37;;;7.40;99.90;;;;;;4972723;28;20192;-91
2021/09/20 07:31:35;;;;;;;3.53;2.17;;;7.40;99.90;;;;;;4970789;29;20597;-93
2021/09/20 07:34:01;;;;;;;4.47;2.40;;;7.40;99.90;;;;;;4966907;29;20183;-89
2021/09/20 07:36:27;;;;;;;3.67;2.13;;;;;;;;;;4952139;29;20546;-93
2021/09/20 07:38:53;;;;;;;5.07;2.40;;;7.50;99.90;;;;;;4941339;29;20226;-91
2021/09/20 07:41:19;;;;;;;3.97;3.00;;;;;;;;;;4939671;29;20268;-92
2021/09/20 07:43:45;;;;;;;5.57;2.53;;;7.50;99.90;;;;;;4956114;29;20179;-90
2021/09/20 07:46:13;;;;;;;4.73;2.77;;;7.60;99.90;;;;;;4947805;29;20331;-92
2021/09/20 07:48:40;;;;;;;3.63;2.40;;;7.70;99.90;;;;;;4955827;29;20705;-90
2021/09/20 07:51:06;;;;;;;3.73;2.13;;;;;;;;;;4954741;29;20190;-93
2021/09/20 07:53:31;;;;;;;2.70;2.30;;;7.90;99.90;;;;;;4954608;29;20191;-90
2021/09/20 07:55:57;;;;;;;4.63;1.90;;;7.80;99.90;;;;;;4954557;29;20533;-92
2021/09/20 07:58:23;;;;;;;5.30;2.57;;;7.90;99.90;;;;;;4951911;29;20302;-91
2021/09/20 08:00:49;;;;;;;3.53;1.90;;;7.90;99.90;;;;;;4937606;29;20210;-90
2021/09/20 08:03:15;;;;;;;2.27;1.90;;;;;;;;;;4946837;29;20271;-94
2021/09/20 08:05:41;;;;;;;5.73;1.67;;;7.90;99.90;;;;;;4955761;29;20211;-94
2021/09/20 08:08:08;;;;;;;2.30;1.93;;;8.30;99.90;;;;;;4971815;29;20167;-94
2021/09/20 08:10:34;;;;;;;2.87;1.67;;;;;;;;;;4947921;29;20191;-94
2021/09/20 08:13:02;;;;;;;3.27;2.10;;;8.30;99.90;;;;;;4950373;29;20183;-92
2021/09/20 08:15:29;;;;;;;1.83;1.53;;;;;;;;;;4953717;29;20171;-95
2021/09/20 08:17:55;;;;;;;2.63;1.40;;;;;;;;;;4958965;29;20191;-96
2021/09/20 08:20:20;;;;;;;4.13;2.00;;;8.20;99.90;;;;;;4966658;29;20246;-92
2021/09/20 08:22:49;;;;;;;6.40;1.90;;;8.40;99.90;;;;;;4969883;29;20214;-96
2021/09/20 08:25:15;;;;;;;1.80;1.40;;;;;;;;;;4949256;29;20271;-95
2021/09/20 08:27:41;;;;;;;4.73;1.90;;;8.10;99.90;;;;;;4969266;29;20175;-95
2021/09/20 08:30:07;;;;;;;3.50;2.07;;;8.40;99.90;;;;;;4967406;29;20171;-95
2021/09/20 08:32:33;;;;;;;3.10;1.90;;;;;;;;;;4946351;29;20262;-95
2021/09/20 08:34:59;;;;;;;3.07;1.73;;;8.60;99.90;;;;;;4961685;28;20217;-95
2021/09/20 08:37:25;;;;;;;2.53;1.63;;;;;;;;;;4959762;29;20199;-95
2021/09/20 08:39:52;;;;;;;3.00;2.00;;;8.30;99.90;;;;;;4941431;29;20187;-96
2021/09/20 08:42:19;;;;;;;2.00;1.80;;;;;;;;;;4940359;29;20734;-94
2021/09/20 08:44:45;;;;;;;2.50;1.70;;;;;;;;;;4960355;29;20210;-93
2021/09/20 08:47:18;;;;;;;2.27;1.87;;;8.20;99.90;;;;;;4945303;29;20258;-94
2021/09/20 08:49:44;;;;;;;3.23;2.10;;;;;;;;;;4983519;23;20366;-96
2021/09/20 08:52:10;;;;;;;3.03;2.20;;;;;;;;;;4948843;29;20220;-95
2021/09/20 08:54:36;;;;;;;3.40;2.23;;;;;;;;;;4927525;29;20203;-96
2021/09/20 08:57:03;;;;;;;2.80;1.67;;;8.50;99.90;;;;;;4933187;29;20184;-93
2021/09/20 08:59:32;;;;;;;3.27;1.37;;;;;;;;;;4994827;23;20168;-96
2021/09/20 09:01:58;;;;;;;2.33;1.60;;;;;;;;;;5001652;23;20238;-96
2021/09/20 09:04:35;;;;;;;3.70;1.87;;;8.60;99.90;;;;;;4974091;28;20247;-96
2021/09/20 09:07:01;;;;;;;1.73;1.50;;;;;;;;;;4947181;29;20194;-96
2021/09/20 09:09:33;;;;;;;4.33;1.80;;;8.60;99.90;;;;;;5167286;23;20334;-93
2021/09/20 09:14:39;;;;;;;4.23;2.17;;;8.60;99.90;;;;;;4944327;29;20236;-92
2021/09/20 09:17:14;;;;;;;2.83;2.07;;;8.60;99.90;;;;;;4943908;29;20244;-94
2021/09/20 09:20:01;;;;;;;2.67;1.70;;;8.60;99.90;;;;;;4968892;23;20261;-96
2021/09/20 09:22:46;;;;;;;2.20;1.70;;;8.60;99.90;;;;;;4948746;29;20227;-94
2021/09/20 09:25:21;;;;;;;1.77;1.50;;;8.50;99.90;;;;;;4947726;29;20188;-92
2021/09/20 09:27:51;;;;;;;4.57;1.63;;;8.40;99.90;;;;;;4947007;29;20176;-94
2021/09/20 09:30:25;;;;;;;2.42;1.52;;;8.20;99.90;;;;;;4942859;29;20418;-94
2021/09/20 09:33:08;;;;;;;4.47;1.60;;;8.10;99.90;;;;;;4943992;29;20184;-94
2021/09/20 09:35:37;;;;;;;4.83;1.87;;;8.00;99.90;;;;;;4948102;29;20168;-94
2021/09/20 09:38:05;;;;;;;4.83;2.27;;;8.00;99.90;;;;;;4955562;29;20160;-93
2021/09/20 09:40:52;;;;;;;3.27;2.30;;;7.90;99.90;;;;;;4958767;29;20195;-89
2021/09/20 09:43:33;;;;;;;2.17;1.93;;;7.90;99.90;;;;;;4971438;28;20171;-91
2021/09/20 09:48:36;;;;;;;4.30;2.33;;;;;;;;;;5444237;23;20295;-91
2021/09/20 09:51:07;;;;;;;4.40;2.13;;;8.10;99.90;;;;;;4986259;28;20199;-95
2021/09/20 09:53:36;;;;;;;2.30;2.10;;;8.00;99.90;;;;;;4959641;29;20203;-94
2021/09/20 09:56:17;;;;;;;8.17;2.37;;;8.10;99.90;;;;;;5046940;23;20267;-94
2021/09/20 09:59:04;;;;;;;3.17;2.23;;;8.00;99.90;;;;;;4943164;29;20200;-95
2021/09/20 10:01:40;;;;;;;3.37;2.10;;;8.10;99.90;;;;;;4948876;29;20649;-94
2021/09/20 10:04:20;;;;;;;3.80;2.37;;;8.10;99.90;;;;;;4943092;29;20325;-96
2021/09/20 10:06:48;;;;;;;4.33;2.00;;;;;;;;;;4946330;29;20188;-94
2021/09/20 10:09:19;;;;;;;2.70;1.77;;;8.00;99.90;;;;;;4945583;29;20198;-95
2021/09/20 10:11:48;;;;;;;2.03;1.80;;;7.90;99.90;;;;;;5114930;23;20258;-94
2021/09/20 10:14:15;;;;;;;1.93;1.73;;;8.00;99.90;;;;;;4948190;29;20177;-96
2021/09/20 10:16:42;;;;;;;3.27;2.03;;;7.90;99.90;;;;;;4948925;29;20215;-93
2021/09/20 10:19:08;;;;;;;5.90;2.13;;;;;;;;;;4952202;28;20152;-93
2021/09/20 10:21:35;;;;;;;3.33;1.97;;;;;;;;;;4982226;23;20247;-92
2021/09/20 10:24:01;;;;;;;2.90;1.70;;;;;;;;;;4949111;29;20188;-95
2021/09/20 10:26:29;;;;;;;2.00;1.80;;;8.20;99.90;;;;;;5391108;23;20236;-91
2021/09/20 10:28:57;;;;;;;3.10;2.10;;;8.20;99.90;;;;;;4953591;29;21011;-94
2021/09/20 10:34:06;;;;;;;1.90;1.70;;;;;;;;;;5231043;23;20243;31
2021/09/20 10:39:16;;;;;;;2.73;1.90;;;;;;;;;;5160080;23;20258;-95
2021/09/20 10:41:44;;;;;;;1.87;1.77;;;;;;;;;;4949886;29;20211;-95
2021/09/20 10:44:12;;;;;;;2.87;1.63;;;8.10;99.90;;;;;;4954724;28;20200;-95
2021/09/20 10:46:46;;;;;;;11.37;1.90;;;8.10;99.90;;;;;;5280868;23;20376;-90
2021/09/20 10:52:05;;;;;;;2.23;1.70;;;8.10;99.90;;;;;;5478004;23;20348;-92
2021/09/20 10:54:31;;;;;;;1.83;1.63;;;;;;;;;;4959696;28;20180;-91
2021/09/20 10:57:11;;;;;;;2.27;1.83;;;8.10;99.90;;;;;;5008947;23;20314;-90
2021/09/20 10:59:37;;;;;;;2.10;1.90;;;;;;;;;;4965930;28;20266;-93
2021/09/20 11:02:06;;;;;;;3.10;1.57;;;8.10;99.90;;;;;;4950294;29;20207;-94
2021/09/20 11:04:37;;;;;;;2.10;1.90;;;8.10;99.90;;;;;;4960949;29;20180;-93
2021/09/20 11:07:21;;;;;;;2.30;1.97;;;8.00;99.90;;;;;;4968748;28;20155;-89
2021/09/20 11:09:47;;;;;;;6.13;2.00;;;;;;;;;;4958743;29;20211;-93
2021/09/20 11:12:19;;;;;;;2.43;2.10;;;7.90;99.90;;;;;;4951833;29;20199;-94
2021/09/20 11:15:12;;;;;;;3.07;2.20;;;7.80;99.90;;;;;;4947321;29;20203;-96
2021/09/20 11:17:41;;;;;;;3.27;2.17;;;7.80;99.90;;;;;;4950154;29;20683;-96
2021/09/20 11:20:29;;;;;;;2.60;2.30;;;7.80;99.90;;;;;;4958827;29;20175;-94
2021/09/20 11:23:17;;;;;;;3.33;2.53;;;7.80;99.90;;;;;;4958290;29;20203;-94
2021/09/20 11:28:30;;;;;;;2.60;2.40;;;7.80;99.90;;;;;;5032550;23;20722;-96
2021/09/20 11:30:57;;;;;;;2.73;2.10;;;;;;;;;;5059319;23;20243;-95
2021/09/20 11:33:35;;;;;;;2.97;2.50;;;7.90;99.90;;;;;;4961356;29;20193;-94
2021/09/20 11:36:12;;;;;;;2.53;2.00;;;8.00;99.90;;;;;;4987813;23;20274;-93
2021/09/20 11:41:21;;;;;;;3.10;1.97;;;8.10;99.90;;;;;;5331953;23;20234;-89
2021/09/20 11:43:48;;;;;;;6.67;3.17;;;;;;;;;;5128517;23;20219;-94
2021/09/20 11:46:21;;;;;;;2.33;2.00;;;8.40;99.90;;;;;;4951588;29;20198;-92
2021/09/20 11:51:28;;;;;;;3.07;1.83;;;8.50;99.90;;;;;;5505685;23;20230;-94
2021/09/20 11:53:59;;;;;;;2.87;2.07;;;8.50;99.90;;;;;;4965309;29;20187;-93
2021/09/20 11:56:28;;;;;;;2.03;1.53;;;8.50;99.90;;;;;;4956214;29;20164;-95
2021/09/20 11:58:57;;;;;;;3.50;2.03;;;8.50;99.90;;;;;;4950416;29;20215;-94
2021/09/20 12:01:26;;;;;;;3.57;1.60;;;8.30;99.90;;;;;;4952265;29;20195;-95
2021/09/20 12:03:53;;;;;;;1.97;1.60;;;8.20;99.90;;;;;;4940859;29;20176;-90
2021/09/20 12:06:25;;;;;;;2.93;1.87;;;8.20;99.90;;;;;;5144013;23;20226;-94
2021/09/20 12:08:51;;;;;;;2.87;2.13;;;;;;;;;;4968652;29;20187;-94
2021/09/20 12:11:26;;;;;;;3.77;2.27;;;8.00;99.90;;;;;;5045469;23;20225;-94
2021/09/20 12:13:52;;;;;;;3.23;2.10;;;;;;;;;;4974141;28;20213;-91
2021/09/20 12:16:24;;;;;;;11.20;2.87;;;7.90;99.90;;;;;;5031707;23;20311;-88
2021/09/20 12:18:52;;;;;;;3.30;2.50;;;;;;;;;;5032252;23;20278;-90
2021/09/20 12:34:19;;;;;;;3.70;2.93;;;7.50;99.90;;;;;;5393621;23;20224;-92
2021/09/20 12:39:32;;;;;;;7.13;3.37;;;7.40;99.90;;;;;;5058194;23;20328;-95
2021/09/20 12:42:04;;;;;;;4.27;3.10;;;7.30;99.90;;;;;;4959432;29;20557;-93
2021/09/20 12:49:44;;;;;;;6.57;3.00;;;7.40;99.90;;;;;;5496352;23;20231;-96
2021/09/20 12:52:28;;;;;;;5.93;3.00;;;7.30;99.90;;;;;;4946584;29;20201;-93
2021/09/20 12:54:54;;;;;;;6.53;3.13;;;;;;;;;;4944449;29;20177;-91
2021/09/20 12:57:26;;;;;;;4.30;3.50;;;7.40;99.90;;;;;;4967504;23;20176;-91
2021/09/20 13:00:03;;;;;;;4.13;3.47;;;7.40;99.90;;;;;;4950515;29;20191;-90
2021/09/20 13:02:30;;;;;;;5.60;3.73;;;;;;;;;;4948995;29;20215;-95
2021/09/20 13:04:59;;;;;;;6.00;3.27;;;7.50;99.90;;;;;;4951059;28;20183;-90
2021/09/20 13:07:30;;;;;;;4.40;3.37;;;7.60;99.90;;;;;;4925935;29;20196;-93
2021/09/20 13:09:56;;;;;;;4.60;3.20;;;;;;;;;;4928933;29;20188;-94
2021/09/20 13:12:38;;;;;;;5.43;3.83;;;7.70;99.90;;;;;;4945804;29;20214;-92
2021/09/20 13:15:08;;;;;;;6.80;3.63;;;7.70;99.90;;;;;;5009492;23;20239;-93
2021/09/20 13:17:53;;;;;;;5.47;3.40;;;7.70;99.90;;;;;;4973599;28;20218;-94
2021/09/20 13:20:25;;;;;;;5.03;3.40;;;7.70;99.90;;;;;;5168599;23;20456;-91
2021/09/20 13:23:06;;;;;;;6.73;3.40;;;8.10;99.90;;;;;;5184797;23;20330;-89
2021/09/20 13:25:36;;;;;;;4.37;2.77;;;7.60;99.90;;;;;;4962511;29;20188;-91
2021/09/20 13:28:10;;;;;;;3.23;2.83;;;7.80;99.90;;;;;;4952408;29;20171;-95
2021/09/20 13:30:43;;;;;;;3.30;2.57;;;7.60;99.90;;;;;;4949313;29;20203;-92
2021/09/20 13:33:11;;;;;;;7.00;2.80;;;7.60;99.90;;;;;;4954427;28;20180;-95
2021/09/20 13:35:43;;;;;;;5.07;2.80;;;7.70;99.90;;;;;;5028169;23;20270;-91
2021/09/20 13:40:45;;;;;;;6.10;3.77;;;;;;;;;;5751235;23;20306;-91
2021/09/20 13:43:11;;;;;;;3.33;2.80;;;8.00;99.90;;;;;;4932133;29;20272;-95
2021/09/20 13:45:39;;;;;;;5.50;3.30;;;8.00;99.90;;;;;;4937660;29;20153;-94
2021/09/20 13:48:08;;;;;;;3.97;2.80;;;8.00;99.90;;;;;;5351502;23;20242;-94
2021/09/20 13:50:35;;;;;;;7.30;4.17;;;;;;;;;;4992161;28;20226;-87
2021/09/20 13:58:13;;;;;;;6.80;4.70;;;7.90;99.90;;;;;;5363134;23;20299;-96
2021/09/20 14:03:14;;;;;;;4.97;3.43;;;;;;;;;;5388464;23;20218;-94
2021/09/20 14:05:42;;;;;;;4.43;3.63;;;7.80;99.90;;;;;;5339576;23;20447;-96
2021/09/20 14:08:08;;;;;;;6.67;3.60;;;;;;;;;;4988148;23;20196;-91
2021/09/20 14:11:22;;;;;;;6.60;3.70;;;8.10;99.90;;;;;;5306857;22;20600;-91
2021/09/20 14:16:25;;;;;;;9.27;4.57;;;;;;;;;;5753526;22;20438;-91